createdAt,value
2023-05-19T00:00:01.700Z,22.60
2023-05-19T00:03:00.075Z,20.20
2023-05-19T00:05:28.019Z,18.70
2023-05-19T00:07:59.532Z,16.40
2023-05-19T00:10:32.854Z,15.30
2023-05-19T00:13:00.592Z,15.90
2023-05-19T00:15:28.268Z,15.70
2023-05-19T00:17:55.589Z,14.20
2023-05-19T00:20:23.289Z,12.10
2023-05-19T00:22:50.980Z,15.60
2023-05-19T00:25:18.140Z,17.20
2023-05-19T00:27:45.394Z,17.30
2023-05-19T00:30:13.254Z,16.40
2023-05-19T00:32:41.277Z,21.20
2023-05-19T00:35:09.081Z,18.80
2023-05-19T00:37:36.230Z,22.10
2023-05-19T00:40:05.722Z,17.00
2023-05-19T00:42:33.407Z,18.60
2023-05-19T00:45:00.554Z,19.70
2023-05-19T00:47:27.909Z,18.80
2023-05-19T00:49:55.505Z,14.80
2023-05-19T00:52:23.040Z,14.20
2023-05-19T00:54:51.654Z,15.00
2023-05-19T00:57:20.547Z,16.30
2023-05-19T00:59:48.559Z,14.30
2023-05-19T01:02:15.944Z,20.20
2023-05-19T01:04:44.714Z,19.70
2023-05-19T01:07:12.197Z,16.70
2023-05-19T01:09:40.396Z,22.60
2023-05-19T01:12:09.002Z,21.00
2023-05-19T01:14:36.467Z,13.20
2023-05-19T01:17:15.521Z,19.30
2023-05-19T01:19:51.911Z,23.20
2023-05-19T01:22:36.578Z,17.90
2023-05-19T01:25:17.272Z,18.50
2023-05-19T01:27:59.678Z,13.80
2023-05-19T01:30:43.838Z,15.80
2023-05-19T01:33:16.500Z,15.60
2023-05-19T01:35:45.557Z,12.00
2023-05-19T01:38:17.180Z,14.50
2023-05-19T01:40:45.865Z,14.50
2023-05-19T01:43:18.460Z,16.60
2023-05-19T01:45:46.236Z,13.30
2023-05-19T01:48:14.194Z,14.00
2023-05-19T01:50:42.279Z,16.30
2023-05-19T01:53:10.793Z,12.40
2023-05-19T01:55:49.228Z,11.00
2023-05-19T01:58:42.020Z,14.00
2023-05-19T02:01:12.662Z,14.20
2023-05-19T02:03:45.947Z,11.40
2023-05-19T02:06:44.641Z,13.40
2023-05-19T02:09:21.912Z,11.60
2023-05-19T02:11:58.097Z,10.50
2023-05-19T02:14:33.679Z,13.90
2023-05-19T02:17:04.126Z,18.10
2023-05-19T02:19:35.308Z,13.30
2023-05-19T02:22:02.939Z,16.20
2023-05-19T02:24:30.775Z,13.70
2023-05-19T02:26:59.607Z,12.30
2023-05-19T02:29:27.150Z,13.30
2023-05-19T02:31:54.396Z,14.00
2023-05-19T02:34:22.894Z,16.30
2023-05-19T02:36:51.249Z,16.90
2023-05-19T02:39:18.591Z,14.30
2023-05-19T02:41:45.764Z,18.00
2023-05-19T02:44:13.386Z,13.30
2023-05-19T02:46:40.680Z,13.10
2023-05-19T02:49:08.117Z,16.90
2023-05-19T02:51:35.715Z,17.10
2023-05-19T02:54:03.352Z,18.40
2023-05-19T02:56:30.532Z,26.30
2023-05-19T02:58:58.073Z,26.40
2023-05-19T03:01:25.391Z,27.70
2023-05-19T03:03:52.700Z,21.50
2023-05-19T03:06:23.001Z,25.60
2023-05-19T03:08:50.786Z,20.30
2023-05-19T03:11:17.936Z,23.80
2023-05-19T03:13:45.751Z,17.50
2023-05-19T03:16:13.644Z,19.00
2023-05-19T03:18:41.379Z,19.90
2023-05-19T03:21:08.578Z,17.50
2023-05-19T03:23:36.312Z,28.40
2023-05-19T03:26:04.779Z,26.10
2023-05-19T03:28:32.525Z,18.70
2023-05-19T03:31:02.566Z,18.00
2023-05-19T03:33:34.315Z,14.70
2023-05-19T03:36:03.787Z,14.60
2023-05-19T03:38:34.489Z,16.80
2023-05-19T03:41:01.629Z,14.80
2023-05-19T03:43:29.480Z,15.90
2023-05-19T03:45:59.315Z,15.90
2023-05-19T03:48:42.649Z,15.30
2023-05-19T03:51:19.200Z,19.40
2023-05-19T03:53:48.229Z,12.90
2023-05-19T03:56:17.683Z,13.90
2023-05-19T03:58:46.685Z,16.50
2023-05-19T04:01:15.548Z,16.60
2023-05-19T04:03:42.785Z,16.60
2023-05-19T04:06:10.468Z,14.10
2023-05-19T04:08:39.277Z,18.30
2023-05-19T04:11:06.526Z,15.90
2023-05-19T04:13:35.029Z,21.10
2023-05-19T04:16:03.158Z,19.10
2023-05-19T04:18:30.359Z,15.40
2023-05-19T04:20:57.993Z,20.20
2023-05-19T04:23:26.648Z,17.50
2023-05-19T04:25:54.849Z,21.50
2023-05-19T04:28:23.765Z,26.20
2023-05-19T04:30:51.912Z,23.00
2023-05-19T04:33:19.676Z,18.80
2023-05-19T04:35:47.207Z,17.10
2023-05-19T04:38:18.477Z,19.00
2023-05-19T04:40:45.687Z,14.20
2023-05-19T04:43:13.309Z,19.60
2023-05-19T04:45:42.168Z,14.80
2023-05-19T04:48:10.230Z,17.30
2023-05-19T04:50:38.221Z,13.80
2023-05-19T04:53:06.582Z,18.70
2023-05-19T04:55:34.356Z,13.80
2023-05-19T04:58:01.627Z,12.70
2023-05-19T05:00:29.293Z,16.30
2023-05-19T05:05:31.463Z,15.50
2023-05-19T05:07:58.847Z,13.00
2023-05-19T05:10:28.228Z,15.70
2023-05-19T05:12:56.058Z,18.10
2023-05-19T05:15:24.056Z,14.00
2023-05-19T05:17:52.062Z,10.40
2023-05-19T05:20:20.554Z,14.40
2023-05-19T05:22:48.067Z,13.70
2023-05-19T05:25:16.236Z,15.50
2023-05-19T05:27:44.299Z,13.70
2023-05-19T05:30:12.353Z,14.50
2023-05-19T05:32:41.916Z,16.40
2023-05-19T05:35:14.739Z,17.10
2023-05-19T05:37:42.014Z,13.60
2023-05-19T05:40:09.778Z,19.40
2023-05-19T05:42:37.809Z,20.10
2023-05-19T05:45:07.122Z,16.90
2023-05-19T05:47:37.716Z,16.20
2023-05-19T05:50:08.670Z,12.10
2023-05-19T05:52:37.280Z,13.50
2023-05-19T05:55:05.356Z,14.70
2023-05-19T05:57:37.057Z,15.70
2023-05-19T06:00:07.495Z,14.60
2023-05-19T06:02:47.059Z,12.90
2023-05-19T06:05:14.741Z,11.00
2023-05-19T06:07:43.329Z,11.80
2023-05-19T06:10:11.841Z,14.50
2023-05-19T06:12:40.254Z,11.10
2023-05-19T06:15:08.105Z,13.50
2023-05-19T06:17:50.488Z,11.50
2023-05-19T06:20:18.011Z,11.30
2023-05-19T06:22:45.409Z,15.00
2023-05-19T06:25:14.509Z,16.10
2023-05-19T06:27:42.885Z,13.10
2023-05-19T06:30:10.573Z,11.10
2023-05-19T06:32:57.602Z,13.40
2023-05-19T06:35:25.443Z,13.20
2023-05-19T06:37:53.080Z,10.80
2023-05-19T06:40:21.859Z,11.40
2023-05-19T06:42:49.712Z,12.60
2023-05-19T06:45:23.479Z,12.10
2023-05-19T06:47:51.525Z,13.90
2023-05-19T06:50:19.989Z,10.30
2023-05-19T06:52:50.279Z,7.40
2023-05-19T06:55:18.973Z,12.20
2023-05-19T06:57:46.249Z,10.10
2023-05-19T07:00:17.024Z,16.60
2023-05-19T07:02:47.320Z,9.20
2023-05-19T07:05:15.690Z,10.30
2023-05-19T07:07:45.044Z,11.30
2023-05-19T07:10:13.981Z,8.00
2023-05-19T07:12:41.808Z,9.90
2023-05-19T07:15:09.747Z,7.70
2023-05-19T07:17:38.319Z,9.90
2023-05-19T07:20:06.671Z,10.90
2023-05-19T07:22:38.190Z,10.20
2023-05-19T07:25:06.988Z,15.40
2023-05-19T07:27:35.588Z,18.40
2023-05-19T07:30:03.811Z,9.10
2023-05-19T07:32:31.504Z,16.10
2023-05-19T07:34:59.664Z,17.80
2023-05-19T07:37:27.009Z,13.50
2023-05-19T07:39:54.705Z,13.50
2023-05-19T07:42:22.031Z,13.50
2023-05-19T07:44:51.072Z,12.50
2023-05-19T07:47:19.512Z,13.50
2023-05-19T07:49:48.161Z,9.40
2023-05-19T07:52:19.239Z,14.20
2023-05-19T07:54:46.768Z,9.80
2023-05-19T07:57:14.245Z,10.00
2023-05-19T07:59:41.718Z,13.00
2023-05-19T08:02:19.353Z,14.70
2023-05-19T08:04:50.233Z,11.80
2023-05-19T08:07:18.346Z,12.70
2023-05-19T08:09:45.837Z,12.30
2023-05-19T08:12:13.396Z,11.70
2023-05-19T08:14:40.857Z,12.20
2023-05-19T08:17:09.483Z,9.60
2023-05-19T08:19:36.887Z,15.70
2023-05-19T08:22:04.612Z,14.30
2023-05-19T08:24:33.602Z,11.30
2023-05-19T08:27:01.066Z,9.50
2023-05-19T08:29:31.509Z,11.30
2023-05-19T08:31:59.981Z,10.20
2023-05-19T08:34:27.607Z,10.30
2023-05-19T08:36:59.131Z,10.00
2023-05-19T08:39:29.321Z,15.20
2023-05-19T08:41:57.298Z,17.10
2023-05-19T08:44:24.758Z,13.30
2023-05-19T08:46:54.792Z,14.90
2023-05-19T08:49:30.584Z,11.40
2023-05-19T08:52:52.535Z,25.30
2023-05-19T08:55:52.951Z,14.20
2023-05-19T08:58:22.043Z,13.20
2023-05-19T09:00:50.869Z,11.90
2023-05-19T09:03:23.763Z,15.60
2023-05-19T09:05:52.206Z,12.90
2023-05-19T09:08:19.760Z,11.00
2023-05-19T09:10:47.127Z,10.30
2023-05-19T09:13:15.559Z,12.70
2023-05-19T09:15:45.168Z,11.60
2023-05-19T09:18:14.587Z,33.50
2023-05-19T09:20:44.030Z,13.50
2023-05-19T09:23:16.802Z,13.10
2023-05-19T09:25:52.401Z,8.50
2023-05-19T09:28:24.911Z,12.90
2023-05-19T09:31:00.477Z,11.00
2023-05-19T09:33:29.337Z,12.00
2023-05-19T09:35:57.135Z,13.50
2023-05-19T09:38:26.315Z,13.70
2023-05-19T09:40:57.746Z,17.00
2023-05-19T09:43:29.522Z,13.30
2023-05-19T09:46:03.443Z,16.90
2023-05-19T09:48:31.301Z,18.10
2023-05-19T09:51:00.901Z,13.20
2023-05-19T09:53:31.118Z,15.80
2023-05-19T09:58:27.292Z,10.60
2023-05-19T10:00:55.835Z,13.10
2023-05-19T10:03:23.641Z,10.10
2023-05-19T10:05:53.324Z,14.00
2023-05-19T10:08:22.290Z,15.20
2023-05-19T10:10:49.928Z,12.70
2023-05-19T10:13:18.015Z,14.40
2023-05-19T10:15:58.351Z,18.00
2023-05-19T10:18:29.024Z,13.10
2023-05-19T10:20:57.567Z,13.10
2023-05-19T10:23:25.376Z,17.80
2023-05-19T10:25:57.812Z,14.10
2023-05-19T10:28:30.724Z,22.90
2023-05-19T10:31:01.426Z,12.30
2023-05-19T10:33:56.663Z,10.90
2023-05-19T10:36:30.709Z,16.80
2023-05-19T10:39:16.359Z,10.60
2023-05-19T10:42:06.903Z,15.30
2023-05-19T10:44:54.698Z,13.40
2023-05-19T10:47:25.942Z,11.70
2023-05-19T10:49:54.129Z,10.00
2023-05-19T10:52:25.510Z,11.40
2023-05-19T10:54:54.541Z,11.80
2023-05-19T10:57:31.791Z,12.40
2023-05-19T11:00:11.278Z,8.70
2023-05-19T11:02:45.082Z,10.20
2023-05-19T11:05:17.781Z,10.00
2023-05-19T11:08:01.785Z,14.30
2023-05-19T11:10:29.271Z,14.80
2023-05-19T11:12:58.317Z,9.70
2023-05-19T11:15:39.720Z,11.80
2023-05-19T11:18:33.010Z,12.20
2023-05-19T11:21:02.141Z,12.00
2023-05-19T11:23:34.833Z,12.70
2023-05-19T11:26:03.136Z,15.50
2023-05-19T11:28:30.941Z,13.30
2023-05-19T11:30:58.670Z,17.90
2023-05-19T11:33:29.957Z,13.00
2023-05-19T11:36:02.513Z,13.70
2023-05-19T11:38:30.010Z,15.20
2023-05-19T11:41:07.742Z,18.60
2023-05-19T11:43:35.281Z,17.10
2023-05-19T11:46:02.557Z,17.80
2023-05-19T11:48:30.877Z,16.40
2023-05-19T11:51:00.747Z,18.20
2023-05-19T11:53:32.657Z,13.00
2023-05-19T11:56:04.503Z,13.90
2023-05-19T11:58:31.931Z,16.30
2023-05-19T12:01:03.900Z,14.40
2023-05-19T12:03:32.845Z,12.50
2023-05-19T12:06:05.724Z,11.20
2023-05-19T12:08:45.314Z,11.60
2023-05-19T12:11:13.220Z,12.30
2023-05-19T12:13:41.055Z,19.40
2023-05-19T12:16:11.899Z,13.80
2023-05-19T12:18:40.197Z,15.10
2023-05-19T12:21:08.026Z,14.30
2023-05-19T12:23:36.226Z,14.30
2023-05-19T12:26:14.206Z,17.00
2023-05-19T12:28:50.954Z,18.50
2023-05-19T12:31:29.590Z,16.60
2023-05-19T12:33:57.867Z,14.60
2023-05-19T12:36:26.286Z,15.40
2023-05-19T12:39:39.263Z,13.70
2023-05-19T12:42:10.668Z,16.10
2023-05-19T12:44:52.277Z,11.60
2023-05-19T12:47:20.817Z,14.40
2023-05-19T12:50:04.181Z,10.10
2023-05-19T12:52:35.913Z,19.90
2023-05-19T12:55:07.561Z,16.00
2023-05-19T13:00:13.717Z,11.00
2023-05-19T13:03:01.765Z,19.60
2023-05-19T13:05:39.559Z,14.10
2023-05-19T13:08:09.601Z,22.40
2023-05-19T13:10:38.722Z,18.60
2023-05-19T13:13:08.256Z,18.70
2023-05-19T13:15:42.287Z,17.40
2023-05-19T13:18:10.617Z,15.50
2023-05-19T13:20:40.726Z,17.60
2023-05-19T13:23:10.526Z,14.40
2023-05-19T13:28:06.759Z,19.30
2023-05-19T13:30:39.668Z,10.60
2023-05-19T13:33:09.610Z,15.50
2023-05-19T13:35:37.471Z,15.70
2023-05-19T13:38:07.530Z,14.70
2023-05-19T13:40:36.378Z,16.70
2023-05-19T13:43:06.603Z,19.00
2023-05-19T13:45:34.289Z,14.20
2023-05-19T13:48:02.578Z,17.00
2023-05-19T13:50:30.287Z,20.90
2023-05-19T13:52:58.268Z,26.50
2023-05-19T13:55:27.071Z,21.80
2023-05-19T13:57:54.769Z,25.20
2023-05-19T14:00:22.825Z,19.80
2023-05-19T14:02:50.504Z,21.50
2023-05-19T14:05:18.061Z,26.40
2023-05-19T14:07:45.987Z,23.20
2023-05-19T14:10:13.452Z,22.90
2023-05-19T14:13:04.845Z,20.40
2023-05-19T14:15:29.257Z,18.90
2023-05-19T14:17:58.542Z,24.70
2023-05-19T14:20:27.937Z,26.50
2023-05-19T14:22:57.478Z,20.40
2023-05-19T14:25:24.952Z,23.10
2023-05-19T14:27:53.520Z,20.10
2023-05-19T14:30:22.323Z,23.40
2023-05-19T14:32:50.793Z,22.20
2023-05-19T14:35:18.439Z,16.90
2023-05-19T14:37:45.917Z,23.80
2023-05-19T14:40:13.365Z,17.80
2023-05-19T14:42:40.625Z,12.70
2023-05-19T14:45:08.872Z,15.60
2023-05-19T14:47:37.010Z,18.80
2023-05-19T14:50:05.458Z,18.60
2023-05-19T14:52:32.791Z,16.30
2023-05-19T14:55:00.261Z,21.20
2023-05-19T14:57:27.476Z,19.30
2023-05-19T14:59:54.931Z,23.60
2023-05-19T15:02:22.336Z,21.20
2023-05-19T15:04:52.521Z,22.50
2023-05-19T15:07:21.942Z,22.50
2023-05-19T15:09:51.952Z,23.40
2023-05-19T15:12:27.658Z,22.40
2023-05-19T15:14:54.965Z,27.20
2023-05-19T15:17:22.414Z,23.10
2023-05-19T15:19:50.722Z,20.20
2023-05-19T15:22:18.719Z,23.50
2023-05-19T15:24:45.979Z,31.00
2023-05-19T15:27:13.651Z,22.10
2023-05-19T15:29:41.551Z,19.80
2023-05-19T15:32:08.894Z,22.60
2023-05-19T15:34:36.111Z,21.50
2023-05-19T15:37:03.858Z,21.50
2023-05-19T15:39:31.048Z,19.80
2023-05-19T15:41:58.237Z,25.30
2023-05-19T15:44:27.095Z,21.30
2023-05-19T15:46:56.629Z,20.70
2023-05-19T15:49:24.979Z,19.90
2023-05-19T15:51:52.757Z,23.50
2023-05-19T15:54:20.134Z,21.00
2023-05-19T15:56:47.326Z,24.20
2023-05-19T15:59:14.964Z,26.30
2023-05-19T16:01:42.431Z,21.10
2023-05-19T16:04:09.727Z,24.70
2023-05-19T16:06:37.251Z,20.90
2023-05-19T16:09:04.550Z,21.20
2023-05-19T16:11:31.752Z,27.80
2023-05-19T16:13:59.317Z,26.60
2023-05-19T16:16:27.004Z,24.90
2023-05-19T16:18:54.363Z,23.80
2023-05-19T16:21:21.905Z,27.90
2023-05-19T16:23:49.762Z,31.30
2023-05-19T16:26:17.088Z,34.90
2023-05-19T16:28:44.465Z,27.70
2023-05-19T16:31:13.129Z,28.20
2023-05-19T16:33:40.994Z,26.80
2023-05-19T16:36:08.531Z,34.50
2023-05-19T16:38:36.135Z,27.10
2023-05-19T16:41:05.706Z,25.70
2023-05-19T16:43:33.559Z,26.70
2023-05-19T16:46:02.967Z,28.40
2023-05-19T16:48:30.709Z,28.80
2023-05-19T16:50:58.995Z,28.90
2023-05-19T16:53:26.428Z,32.00
2023-05-19T16:55:54.310Z,32.30
2023-05-19T16:58:21.774Z,32.30
2023-05-19T17:00:51.669Z,37.90
2023-05-19T17:03:30.683Z,40.60
2023-05-19T17:06:13.013Z,31.90
2023-05-19T17:08:55.330Z,28.60
2023-05-19T17:11:41.372Z,28.50
2023-05-19T17:14:23.661Z,30.60
2023-05-19T17:17:11.079Z,37.50
2023-05-19T17:19:54.637Z,32.80
2023-05-19T17:22:39.708Z,39.80
2023-05-19T17:25:21.878Z,33.10
2023-05-19T17:28:07.600Z,35.60
2023-05-19T17:30:49.634Z,37.30
2023-05-19T17:33:37.636Z,31.10
2023-05-19T17:36:20.843Z,34.90
2023-05-19T17:39:08.705Z,40.30
2023-05-19T17:41:50.907Z,33.60
2023-05-19T17:44:37.864Z,28.60
2023-05-19T17:47:11.311Z,26.20
2023-05-19T17:49:40.605Z,31.50
2023-05-19T17:52:08.807Z,26.70
2023-05-19T17:54:36.260Z,32.60
2023-05-19T17:57:10.448Z,32.00
2023-05-19T17:59:38.181Z,28.60
2023-05-19T18:02:06.821Z,32.10
2023-05-19T18:04:35.033Z,33.40
2023-05-19T18:07:04.240Z,31.10
2023-05-19T18:12:02.037Z,41.60
2023-05-19T18:14:29.799Z,37.40
2023-05-19T18:16:57.827Z,37.40
2023-05-19T18:19:25.627Z,36.90
2023-05-19T18:21:53.068Z,32.10
2023-05-19T18:24:21.278Z,39.70
2023-05-19T18:26:48.806Z,46.00
2023-05-19T18:29:16.151Z,36.70
2023-05-19T18:31:43.886Z,32.90
2023-05-19T18:34:11.356Z,38.60
2023-05-19T18:36:38.811Z,32.80
2023-05-19T18:39:06.617Z,40.90
2023-05-19T18:41:37.448Z,38.00
2023-05-19T18:44:07.510Z,39.30
2023-05-19T18:46:35.483Z,30.80
2023-05-19T18:49:03.907Z,32.10
2023-05-19T18:51:33.039Z,35.90
2023-05-19T18:54:01.435Z,37.50
2023-05-19T18:56:35.543Z,45.30
2023-05-19T18:59:03.297Z,36.30
2023-05-19T19:01:30.626Z,36.90
2023-05-19T19:03:58.302Z,36.00
2023-05-19T19:06:26.042Z,35.40
2023-05-19T19:08:53.415Z,39.50
2023-05-19T19:11:21.673Z,44.20
2023-05-19T19:13:50.810Z,34.30
2023-05-19T19:16:18.033Z,40.00
2023-05-19T19:18:45.655Z,36.10
2023-05-19T19:21:13.424Z,49.60
2023-05-19T19:23:40.631Z,43.10
2023-05-19T19:26:09.279Z,39.60
2023-05-19T19:28:37.304Z,36.90
2023-05-19T19:31:04.498Z,36.10
2023-05-19T19:33:32.066Z,36.80
2023-05-19T19:35:59.667Z,35.60
2023-05-19T19:38:26.940Z,37.10
2023-05-19T19:40:54.662Z,39.10
2023-05-19T19:43:22.106Z,34.90
2023-05-19T19:46:01.436Z,37.50
2023-05-19T19:48:28.801Z,38.10
2023-05-19T19:50:57.122Z,42.30
2023-05-19T19:53:25.164Z,43.10
2023-05-19T19:56:00.404Z,42.90
2023-05-19T19:58:28.955Z,40.90
2023-05-19T20:01:02.698Z,43.30
2023-05-19T20:03:31.362Z,35.90
2023-05-19T20:05:59.856Z,36.90
2023-05-19T20:08:27.424Z,38.10
2023-05-19T20:10:55.272Z,38.50
2023-05-19T20:13:23.415Z,38.20
2023-05-19T20:15:51.031Z,45.10
2023-05-19T20:18:18.754Z,37.80
2023-05-19T20:20:46.310Z,34.00
2023-05-19T20:23:15.738Z,38.20
2023-05-19T20:25:57.934Z,37.80
2023-05-19T20:28:30.221Z,30.60
2023-05-19T20:30:57.990Z,35.70
2023-05-19T20:33:25.267Z,33.20
2023-05-19T20:35:53.089Z,35.60
2023-05-19T20:38:20.392Z,36.30
2023-05-19T20:40:47.644Z,31.80
2023-05-19T20:43:15.865Z,34.70
2023-05-19T20:45:44.247Z,38.10
2023-05-19T20:48:11.626Z,39.70
2023-05-19T20:50:39.740Z,36.40
2023-05-19T20:53:07.145Z,36.40
2023-05-19T20:55:37.579Z,36.70
2023-05-19T20:58:05.260Z,39.20
2023-05-19T21:00:33.360Z,37.90
2023-05-19T21:03:01.073Z,33.70
2023-05-19T21:05:28.739Z,34.60
2023-05-19T21:07:56.333Z,37.50
2023-05-19T21:10:23.725Z,34.70
2023-05-19T21:12:51.273Z,35.10
2023-05-19T21:15:19.300Z,36.80
2023-05-19T21:17:46.778Z,35.90
2023-05-19T21:20:14.379Z,34.40
2023-05-19T21:22:41.803Z,34.00
2023-05-19T21:25:09.151Z,31.70
2023-05-19T21:27:36.391Z,31.10
2023-05-19T21:30:04.339Z,32.80
2023-05-19T21:32:31.718Z,31.00
2023-05-19T21:34:59.611Z,36.10
2023-05-19T21:37:27.453Z,30.70
2023-05-19T21:39:54.860Z,37.50
2023-05-19T21:42:23.496Z,34.30
2023-05-19T21:44:51.041Z,32.20
2023-05-19T21:47:18.476Z,31.10
2023-05-19T21:49:46.099Z,33.40
2023-05-19T21:52:13.490Z,33.30
2023-05-19T21:54:41.096Z,33.70
2023-05-19T21:57:10.777Z,31.30
2023-05-19T21:59:38.481Z,34.40
2023-05-19T22:02:06.002Z,34.70
2023-05-19T22:04:33.838Z,31.50
2023-05-19T22:07:01.280Z,33.30
2023-05-19T22:09:28.854Z,33.30
2023-05-19T22:11:56.495Z,33.30
2023-05-19T22:14:23.769Z,31.10
2023-05-19T22:16:51.083Z,27.40
2023-05-19T22:19:19.511Z,27.40
2023-05-19T22:21:46.856Z,30.30
2023-05-19T22:24:14.014Z,29.30
2023-05-19T22:26:42.448Z,29.00
2023-05-19T22:29:15.042Z,34.80
2023-05-19T22:31:42.413Z,30.20
2023-05-19T22:34:12.185Z,32.10
2023-05-19T22:36:41.446Z,29.90
2023-05-19T22:39:09.013Z,30.60
2023-05-19T22:41:36.160Z,32.70
2023-05-19T22:44:03.852Z,31.50
2023-05-19T22:46:31.300Z,29.00
2023-05-19T22:48:58.575Z,32.50
2023-05-19T22:51:25.989Z,30.40
2023-05-19T22:53:53.257Z,32.90
2023-05-19T22:56:20.623Z,36.50
2023-05-19T22:58:48.541Z,33.00
2023-05-19T23:01:16.805Z,33.30
2023-05-19T23:03:44.334Z,33.60
2023-05-19T23:06:12.035Z,37.80
2023-05-19T23:08:39.477Z,31.60
2023-05-19T23:11:07.426Z,38.60
2023-05-19T23:13:35.122Z,32.80
2023-05-19T23:16:02.530Z,34.20
2023-05-19T23:18:29.617Z,36.70
2023-05-19T23:20:57.165Z,35.30
2023-05-19T23:23:24.587Z,33.40
2023-05-19T23:25:51.746Z,33.50
2023-05-19T23:28:19.554Z,34.10
2023-05-19T23:30:47.194Z,32.70
2023-05-19T23:33:14.432Z,30.80
2023-05-19T23:35:42.838Z,34.30
2023-05-19T23:38:10.709Z,37.00
2023-05-19T23:40:38.112Z,38.30
2023-05-19T23:43:05.922Z,33.70
2023-05-19T23:45:34.032Z,33.50
2023-05-19T23:48:01.306Z,34.60
2023-05-19T23:50:28.718Z,29.10
2023-05-19T23:52:56.582Z,31.70
2023-05-19T23:55:23.733Z,30.90
2023-05-19T23:57:51.130Z,30.80
